createdAt,value
2018-11-14T00:00:20.157Z,10.90
2018-11-14T00:02:47.333Z,10.90
2018-11-14T00:05:14.777Z,10.80
2018-11-14T00:07:41.964Z,10.80
2018-11-14T00:10:09.606Z,10.80
2018-11-14T00:12:36.837Z,10.80
2018-11-14T00:15:04.917Z,10.80
2018-11-14T00:17:32.168Z,10.80
2018-11-14T00:19:59.553Z,10.80
2018-11-14T00:22:26.856Z,10.80
2018-11-14T00:24:54.456Z,10.80
2018-11-14T00:27:21.377Z,10.80
2018-11-14T00:29:48.605Z,10.80
2018-11-14T00:32:15.863Z,10.80
2018-11-14T00:34:43.164Z,10.70
2018-11-14T00:37:10.510Z,10.60
2018-11-14T00:39:37.845Z,10.70
2018-11-14T00:42:05.309Z,10.70
2018-11-14T00:44:32.515Z,10.70
2018-11-14T00:46:59.863Z,10.60
2018-11-14T00:49:27.212Z,10.60
2018-11-14T00:51:54.429Z,10.60
2018-11-14T00:54:21.702Z,10.60
2018-11-14T00:56:49.047Z,10.50
2018-11-14T00:59:16.337Z,10.60
2018-11-14T01:01:43.713Z,10.50
2018-11-14T01:04:10.858Z,10.50
2018-11-14T01:06:38.060Z,10.60
2018-11-14T01:09:07.092Z,10.60
2018-11-14T01:11:34.407Z,10.60
2018-11-14T01:14:01.656Z,10.60
2018-11-14T01:16:28.920Z,10.50
2018-11-14T01:18:56.167Z,10.60
2018-11-14T01:21:23.521Z,10.60
2018-11-14T01:23:50.803Z,10.50
2018-11-14T01:26:18.068Z,10.50
2018-11-14T01:28:45.370Z,10.40
2018-11-14T01:31:12.718Z,10.50
2018-11-14T01:33:39.965Z,10.50
2018-11-14T01:36:07.253Z,10.50
2018-11-14T01:38:34.541Z,10.50
2018-11-14T01:41:01.959Z,10.40
2018-11-14T01:43:29.217Z,10.50
2018-11-14T01:45:56.481Z,10.40
2018-11-14T01:48:23.716Z,10.50
2018-11-14T01:50:51.011Z,10.50
2018-11-14T01:53:18.889Z,10.50
2018-11-14T01:55:46.160Z,10.50
2018-11-14T01:58:13.439Z,10.50
2018-11-14T02:00:40.781Z,10.50
2018-11-14T02:03:08.143Z,10.50
2018-11-14T02:05:35.458Z,10.50
2018-11-14T02:08:02.763Z,10.50
2018-11-14T02:10:29.989Z,10.50
2018-11-14T02:12:57.197Z,10.60
2018-11-14T02:15:24.486Z,10.50
2018-11-14T02:17:52.217Z,10.50
2018-11-14T02:20:19.482Z,10.50
2018-11-14T02:22:47.127Z,10.40
2018-11-14T02:25:14.852Z,10.50
2018-11-14T02:27:42.238Z,10.40
2018-11-14T02:30:12.637Z,10.40
2018-11-14T02:32:39.918Z,10.30
2018-11-14T02:35:07.573Z,10.30
2018-11-14T02:37:34.861Z,10.40
2018-11-14T02:40:02.250Z,10.40
2018-11-14T02:42:29.490Z,10.50
2018-11-14T02:44:56.792Z,10.40
2018-11-14T02:47:24.114Z,10.40
2018-11-14T02:49:51.324Z,10.40
2018-11-14T02:52:19.160Z,10.40
2018-11-14T02:54:46.332Z,10.30
2018-11-14T02:57:13.705Z,10.40
2018-11-14T02:59:40.934Z,10.40
2018-11-14T03:02:08.383Z,10.30
2018-11-14T03:04:35.658Z,10.30
2018-11-14T03:07:03.572Z,10.30
2018-11-14T03:09:30.878Z,10.30
2018-11-14T03:11:58.143Z,10.30
2018-11-14T03:14:25.407Z,10.40
2018-11-14T03:16:52.708Z,10.30
2018-11-14T03:19:19.951Z,10.30
2018-11-14T03:21:47.261Z,10.20
2018-11-14T03:24:14.510Z,10.20
2018-11-14T03:26:41.930Z,10.30
2018-11-14T03:29:09.285Z,10.10
2018-11-14T03:31:36.520Z,10.10
2018-11-14T03:34:04.439Z,10.00
2018-11-14T03:36:31.690Z,10.10
2018-11-14T03:38:58.929Z,10.20
2018-11-14T03:41:26.213Z,10.20
2018-11-14T03:43:53.478Z,10.20
2018-11-14T03:46:20.796Z,10.10
2018-11-14T03:48:48.153Z,10.20
2018-11-14T03:51:15.441Z,10.20
2018-11-14T03:53:42.676Z,10.10
2018-11-14T03:56:09.961Z,10.00
2018-11-14T03:58:37.230Z,10.10
2018-11-14T04:01:05.615Z,10.10
2018-11-14T04:03:32.898Z,10.00
2018-11-14T04:06:00.174Z,10.00
2018-11-14T04:08:27.505Z,10.00
2018-11-14T04:10:54.750Z,10.00
2018-11-14T04:13:22.057Z,10.10
2018-11-14T04:15:49.347Z,10.10
2018-11-14T04:18:16.691Z,10.10
2018-11-14T04:20:44.016Z,10.00
2018-11-14T04:23:11.250Z,10.00
2018-11-14T04:25:38.470Z,10.00
2018-11-14T04:28:05.833Z,10.00
2018-11-14T04:30:33.212Z,9.90
2018-11-14T04:33:00.560Z,9.70
2018-11-14T04:35:27.903Z,9.90
2018-11-14T04:37:55.122Z,10.00
2018-11-14T04:40:23.481Z,10.00
2018-11-14T04:42:50.918Z,9.80
2018-11-14T04:45:22.380Z,9.70
2018-11-14T04:47:49.837Z,9.90
2018-11-14T04:50:19.037Z,10.00
2018-11-14T04:52:46.987Z,9.90
2018-11-14T04:55:15.490Z,9.70
2018-11-14T04:57:43.249Z,9.80
2018-11-14T05:00:11.744Z,9.90
2018-11-14T05:02:39.869Z,9.90
2018-11-14T05:05:08.669Z,9.90
2018-11-14T05:07:35.919Z,9.90
2018-11-14T05:10:03.447Z,9.90
2018-11-14T05:12:30.753Z,10.00
2018-11-14T05:14:58.034Z,9.90
2018-11-14T05:17:25.253Z,9.90
2018-11-14T05:19:52.558Z,9.90
2018-11-14T05:22:19.873Z,9.80
2018-11-14T05:24:47.318Z,9.80
2018-11-14T05:27:14.509Z,9.90
2018-11-14T05:29:41.745Z,10.00
2018-11-14T05:32:09.016Z,10.10
2018-11-14T05:34:36.301Z,9.90
2018-11-14T05:37:03.641Z,10.00
2018-11-14T05:39:30.997Z,10.00
2018-11-14T05:41:58.272Z,10.00
2018-11-14T05:44:25.555Z,10.10
2018-11-14T05:46:52.912Z,10.10
2018-11-14T05:49:20.745Z,10.10
2018-11-14T05:51:48.053Z,10.10
2018-11-14T05:54:15.301Z,10.00
2018-11-14T05:56:42.672Z,10.10
2018-11-14T05:59:09.981Z,10.20
2018-11-14T06:01:37.271Z,10.30
2018-11-14T06:04:05.021Z,10.20
2018-11-14T06:06:32.256Z,10.30
2018-11-14T06:08:59.542Z,10.20
2018-11-14T06:11:26.858Z,10.20
2018-11-14T06:13:54.101Z,10.20
2018-11-14T06:16:21.340Z,10.30
2018-11-14T06:18:48.615Z,10.30
2018-11-14T06:21:15.879Z,10.30
2018-11-14T06:23:43.119Z,10.20
2018-11-14T06:26:10.353Z,10.30
2018-11-14T06:28:37.673Z,10.20
2018-11-14T06:31:05.006Z,10.30
2018-11-14T06:33:32.284Z,10.30
2018-11-14T06:35:59.542Z,10.30
2018-11-14T06:38:26.828Z,10.40
2018-11-14T06:40:54.105Z,10.30
2018-11-14T06:43:21.405Z,10.30
2018-11-14T06:45:48.739Z,10.40
2018-11-14T06:48:15.990Z,10.30
2018-11-14T06:50:43.269Z,10.30
2018-11-14T06:53:10.533Z,10.30
2018-11-14T06:55:37.829Z,10.30
2018-11-14T06:58:05.103Z,10.30
2018-11-14T07:00:33.687Z,10.30
2018-11-14T07:03:02.159Z,10.20
2018-11-14T07:05:29.518Z,10.20
2018-11-14T07:07:56.771Z,10.30
2018-11-14T07:10:26.220Z,10.30
2018-11-14T07:12:53.630Z,10.30
2018-11-14T07:15:22.109Z,10.30
2018-11-14T07:17:50.517Z,10.30
2018-11-14T07:20:22.205Z,10.30
2018-11-14T07:22:49.493Z,10.30
2018-11-14T07:25:16.819Z,10.20
2018-11-14T07:27:44.263Z,10.30
2018-11-14T07:30:13.787Z,10.30
2018-11-14T07:32:42.259Z,10.20
2018-11-14T07:35:10.761Z,10.40
2018-11-14T07:37:38.303Z,10.30
2018-11-14T07:40:08.032Z,10.20
2018-11-14T07:42:35.374Z,10.20
2018-11-14T07:45:02.858Z,10.30
2018-11-14T07:47:30.121Z,10.30
2018-11-14T07:49:57.388Z,10.40
2018-11-14T07:52:24.641Z,10.40
2018-11-14T07:54:51.922Z,10.40
2018-11-14T07:57:19.218Z,10.40
2018-11-14T07:59:46.480Z,10.40
2018-11-14T08:02:13.797Z,10.40
2018-11-14T08:04:41.009Z,10.50
2018-11-14T08:07:08.244Z,10.40
2018-11-14T08:09:35.490Z,10.40
2018-11-14T08:12:02.807Z,10.30
2018-11-14T08:14:30.101Z,10.30
2018-11-14T08:16:57.328Z,10.30
2018-11-14T08:19:24.554Z,10.40
2018-11-14T08:21:51.892Z,10.30
2018-11-14T08:24:19.168Z,10.20
2018-11-14T08:26:46.494Z,10.30
2018-11-14T08:29:13.825Z,10.30
2018-11-14T08:31:41.044Z,10.30
2018-11-14T08:34:08.324Z,10.30
2018-11-14T08:36:35.600Z,10.20
2018-11-14T08:39:04.352Z,10.30
2018-11-14T08:41:31.557Z,10.30
2018-11-14T08:43:58.833Z,10.30
2018-11-14T08:46:26.083Z,10.40
2018-11-14T08:48:53.463Z,10.40
2018-11-14T08:51:20.762Z,10.40
2018-11-14T08:53:48.081Z,10.40
2018-11-14T08:56:15.406Z,10.40
2018-11-14T08:58:42.821Z,10.40
2018-11-14T09:01:10.090Z,10.50
2018-11-14T09:03:37.409Z,10.50
2018-11-14T09:06:04.912Z,10.60
2018-11-14T09:08:32.149Z,10.60
2018-11-14T09:10:59.471Z,10.60
2018-11-14T09:13:26.713Z,10.70
2018-11-14T09:15:54.018Z,10.60
2018-11-14T09:18:21.418Z,10.70
2018-11-14T09:20:48.615Z,10.60
2018-11-14T09:23:15.924Z,10.50
2018-11-14T09:25:43.230Z,10.60
2018-11-14T09:28:10.540Z,10.70
2018-11-14T09:30:37.845Z,10.70
2018-11-14T09:33:05.625Z,10.70
2018-11-14T09:35:32.909Z,10.70
2018-11-14T09:38:00.670Z,10.60
2018-11-14T09:40:28.847Z,10.60
2018-11-14T09:42:56.919Z,10.80
2018-11-14T09:45:25.588Z,10.80
2018-11-14T09:47:52.912Z,10.80
2018-11-14T09:50:21.482Z,10.80
2018-11-14T09:52:50.507Z,10.80
2018-11-14T09:55:17.721Z,10.80
2018-11-14T09:57:45.286Z,10.80
2018-11-14T10:00:16.594Z,10.70
2018-11-14T10:02:44.329Z,10.70
2018-11-14T10:05:14.032Z,10.80
2018-11-14T10:07:41.651Z,10.80
2018-11-14T10:10:10.466Z,10.80
2018-11-14T10:12:38.031Z,10.90
2018-11-14T10:15:07.349Z,10.90
2018-11-14T10:17:34.614Z,10.90
2018-11-14T10:20:02.001Z,10.90
2018-11-14T10:22:29.341Z,10.80
2018-11-14T10:24:56.697Z,10.90
2018-11-14T10:27:23.957Z,10.80
2018-11-14T10:29:51.240Z,10.90
2018-11-14T10:32:18.593Z,11.00
2018-11-14T10:34:45.841Z,11.10
2018-11-14T10:37:13.137Z,11.00
2018-11-14T10:39:40.415Z,10.90
2018-11-14T10:42:07.665Z,10.90
2018-11-14T10:44:35.084Z,10.90
2018-11-14T10:47:02.336Z,11.00
2018-11-14T10:49:29.660Z,11.10
2018-11-14T10:51:56.975Z,11.20
2018-11-14T10:54:24.270Z,11.20
2018-11-14T10:56:51.529Z,11.20
2018-11-14T10:59:18.798Z,11.20
2018-11-14T11:01:51.924Z,11.20
2018-11-14T11:04:25.053Z,11.20
2018-11-14T11:06:58.154Z,11.20
2018-11-14T11:09:31.084Z,11.20
2018-11-14T11:12:04.000Z,11.20
2018-11-14T11:14:35.316Z,11.30
2018-11-14T11:17:08.925Z,11.20
2018-11-14T11:19:36.165Z,11.20
2018-11-14T11:22:03.893Z,11.30
2018-11-14T11:24:31.152Z,11.30
2018-11-14T11:26:58.395Z,11.30
2018-11-14T11:29:25.672Z,11.30
2018-11-14T11:31:53.014Z,11.30
2018-11-14T11:34:20.241Z,11.30
2018-11-14T11:36:47.568Z,11.30
2018-11-14T11:39:16.891Z,11.40
2018-11-14T11:41:44.689Z,11.40
2018-11-14T11:44:12.207Z,11.40
2018-11-14T11:46:40.402Z,11.40
2018-11-14T11:49:07.856Z,11.40
2018-11-14T11:51:35.182Z,11.40
2018-11-14T11:54:02.476Z,11.40
2018-11-14T11:56:29.947Z,11.30
2018-11-14T11:58:57.197Z,11.30
2018-11-14T12:01:24.508Z,11.40
2018-11-14T12:03:51.774Z,11.40
2018-11-14T12:06:19.166Z,11.40
2018-11-14T12:08:46.289Z,11.40
2018-11-14T12:11:13.568Z,11.40
2018-11-14T12:13:40.902Z,11.40
2018-11-14T12:16:08.153Z,11.40
2018-11-14T12:18:35.449Z,11.50
2018-11-14T12:21:02.768Z,11.50
2018-11-14T12:23:30.123Z,11.50
2018-11-14T12:25:57.499Z,11.50
2018-11-14T12:28:24.803Z,11.50
2018-11-14T12:30:52.272Z,11.50
2018-11-14T12:33:19.341Z,11.60
2018-11-14T12:35:46.556Z,11.60
2018-11-14T12:38:13.746Z,11.60
2018-11-14T12:40:41.065Z,11.40
2018-11-14T12:43:08.304Z,11.60
2018-11-14T12:45:35.574Z,11.70
2018-11-14T12:48:02.865Z,11.60
2018-11-14T12:50:30.183Z,11.60
2018-11-14T12:52:57.434Z,11.70
2018-11-14T12:55:24.632Z,11.70
2018-11-14T12:57:51.923Z,11.90
2018-11-14T13:00:19.940Z,11.70
2018-11-14T13:02:47.176Z,11.60
2018-11-14T13:05:14.977Z,11.70
2018-11-14T13:07:42.692Z,11.70
2018-11-14T13:10:14.009Z,11.70
2018-11-14T13:12:42.023Z,11.80
2018-11-14T13:15:10.417Z,11.70
2018-11-14T13:17:37.901Z,11.80
2018-11-14T13:20:07.813Z,11.80
2018-11-14T13:22:35.085Z,11.80
2018-11-14T13:25:02.478Z,11.70
2018-11-14T13:27:29.942Z,11.70
2018-11-14T13:29:57.217Z,11.70
2018-11-14T13:32:24.487Z,11.70
2018-11-14T13:34:51.740Z,11.70
2018-11-14T13:37:19.041Z,11.70
2018-11-14T13:39:46.307Z,11.70
2018-11-14T13:42:13.663Z,11.70
2018-11-14T13:44:40.881Z,11.70
2018-11-14T13:47:08.170Z,11.70
2018-11-14T13:49:35.620Z,11.70
2018-11-14T13:52:02.811Z,11.70
2018-11-14T13:54:30.089Z,11.70
2018-11-14T13:56:57.321Z,11.80
2018-11-14T13:59:24.605Z,11.70
2018-11-14T14:01:51.890Z,11.70
2018-11-14T14:04:19.189Z,11.70
2018-11-14T14:06:46.513Z,11.70
2018-11-14T14:09:13.756Z,11.80
2018-11-14T14:11:41.104Z,12.00
2018-11-14T14:14:11.844Z,11.90
2018-11-14T14:16:39.711Z,11.80
2018-11-14T14:19:07.861Z,11.80
2018-11-14T14:21:35.070Z,11.90
2018-11-14T14:24:02.674Z,11.90
2018-11-14T14:26:30.033Z,11.80
2018-11-14T14:28:57.898Z,11.80
2018-11-14T14:31:25.254Z,11.70
2018-11-14T14:33:52.486Z,11.80
2018-11-14T14:36:20.306Z,11.70
2018-11-14T14:38:47.570Z,11.70
2018-11-14T14:41:14.805Z,11.70
2018-11-14T14:43:42.063Z,11.70
2018-11-14T14:46:09.337Z,11.80
2018-11-14T14:48:36.682Z,11.70
2018-11-14T14:51:04.232Z,11.70
2018-11-14T14:53:31.471Z,11.70
2018-11-14T14:55:58.782Z,11.60
2018-11-14T14:58:26.075Z,11.60
2018-11-14T15:00:53.364Z,11.60
2018-11-14T15:03:20.604Z,11.60
2018-11-14T15:05:47.934Z,11.50
2018-11-14T15:08:15.237Z,11.60
2018-11-14T15:10:42.596Z,11.60
2018-11-14T15:13:09.836Z,11.60
2018-11-14T15:15:37.161Z,11.70
2018-11-14T15:18:04.628Z,11.70
2018-11-14T15:20:31.906Z,11.60
2018-11-14T15:22:59.238Z,11.60
2018-11-14T15:25:26.525Z,11.60
2018-11-14T15:27:53.879Z,11.50
2018-11-14T15:30:22.687Z,11.50
2018-11-14T15:32:50.021Z,11.40
2018-11-14T15:35:17.407Z,11.50
2018-11-14T15:37:44.680Z,11.50
2018-11-14T15:40:13.258Z,11.60
2018-11-14T15:42:40.655Z,11.40
2018-11-14T15:45:11.727Z,11.40
2018-11-14T15:47:39.013Z,11.40
2018-11-14T15:50:08.890Z,11.40
2018-11-14T15:52:36.183Z,11.30
2018-11-14T15:55:03.823Z,11.30
2018-11-14T15:57:31.033Z,11.30
2018-11-14T15:59:58.277Z,11.20
2018-11-14T16:02:25.571Z,11.30
2018-11-14T16:04:52.885Z,11.30
2018-11-14T16:07:20.150Z,11.30
2018-11-14T16:09:47.432Z,11.40
2018-11-14T16:12:16.337Z,11.30
2018-11-14T16:14:43.532Z,11.30
2018-11-14T16:17:10.822Z,11.30
2018-11-14T16:19:38.122Z,11.30
2018-11-14T16:22:05.685Z,11.30
2018-11-14T16:24:33.000Z,11.30
2018-11-14T16:27:00.245Z,11.30
2018-11-14T16:29:27.457Z,11.30
2018-11-14T16:31:54.697Z,11.30
2018-11-14T16:34:21.912Z,11.30
2018-11-14T16:36:49.164Z,11.30
2018-11-14T16:39:16.410Z,11.30
2018-11-14T16:41:43.685Z,11.30
2018-11-14T16:44:10.948Z,11.50
2018-11-14T16:46:38.205Z,11.30
2018-11-14T16:49:05.469Z,11.30
2018-11-14T16:51:32.884Z,11.40
2018-11-14T16:54:00.254Z,11.40
2018-11-14T16:56:27.503Z,11.40
2018-11-14T16:58:54.709Z,11.30
2018-11-14T17:01:22.021Z,11.30
2018-11-14T17:03:49.368Z,11.40
2018-11-14T17:06:16.621Z,11.50
2018-11-14T17:08:43.899Z,11.40
2018-11-14T17:11:11.135Z,11.40
2018-11-14T17:13:38.368Z,11.40
2018-11-14T17:16:05.721Z,11.40
2018-11-14T17:18:32.987Z,11.40
2018-11-14T17:21:00.249Z,11.40
2018-11-14T17:23:27.513Z,11.40
2018-11-14T17:25:54.869Z,11.40
2018-11-14T17:28:22.151Z,11.50
2018-11-14T17:30:49.429Z,11.40
2018-11-14T17:33:16.775Z,11.40
2018-11-14T17:35:44.041Z,11.40
2018-11-14T17:38:11.328Z,11.30
2018-11-14T17:40:38.600Z,11.40
2018-11-14T17:43:05.898Z,11.40
2018-11-14T17:45:33.149Z,11.40
2018-11-14T17:48:00.442Z,11.40
2018-11-14T17:50:34.633Z,11.40
2018-11-14T17:53:02.566Z,11.40
2018-11-14T17:55:30.157Z,11.40
2018-11-14T17:57:57.570Z,11.30
2018-11-14T18:00:26.204Z,11.30
2018-11-14T18:02:53.541Z,11.20
2018-11-14T18:05:22.129Z,11.20
2018-11-14T18:07:50.170Z,11.10
2018-11-14T18:10:18.888Z,11.10
2018-11-14T18:12:47.175Z,11.10
2018-11-14T18:15:14.726Z,11.10
2018-11-14T18:17:42.256Z,11.10
2018-11-14T18:20:15.060Z,11.10
2018-11-14T18:22:42.968Z,11.10
2018-11-14T18:25:10.581Z,11.10
2018-11-14T18:27:37.825Z,11.10
2018-11-14T18:30:14.921Z,11.10
2018-11-14T18:32:48.322Z,11.10
2018-11-14T18:35:22.376Z,11.10
2018-11-14T18:37:50.560Z,11.00
2018-11-14T18:40:19.161Z,11.00
2018-11-14T18:42:46.425Z,11.00
2018-11-14T18:45:18.801Z,11.10
2018-11-14T18:47:46.665Z,11.10
2018-11-14T18:50:14.609Z,11.10
2018-11-14T18:52:42.312Z,11.10
2018-11-14T18:55:10.940Z,11.10
2018-11-14T18:57:38.731Z,11.10
2018-11-14T19:00:14.416Z,11.70
2018-11-14T19:02:47.825Z,11.10
2018-11-14T19:05:15.679Z,11.10
2018-11-14T19:07:43.145Z,11.10
2018-11-14T19:10:17.866Z,11.10
2018-11-14T19:12:51.764Z,11.20
2018-11-14T19:15:30.173Z,11.10
2018-11-14T19:18:03.641Z,11.10
2018-11-14T19:20:37.112Z,11.10
2018-11-14T19:23:10.434Z,11.10
2018-11-14T19:25:43.917Z,11.10
2018-11-14T19:28:17.311Z,11.10
2018-11-14T19:30:50.611Z,11.10
2018-11-14T19:33:24.022Z,11.10
2018-11-14T19:35:57.341Z,11.00
2018-11-14T19:38:30.864Z,11.10
2018-11-14T19:41:04.483Z,11.10
2018-11-14T19:43:39.033Z,11.10
2018-11-14T19:46:12.398Z,11.10
2018-11-14T19:48:45.944Z,11.10
2018-11-14T19:51:19.360Z,11.10
2018-11-14T19:53:52.695Z,11.10
2018-11-14T19:56:26.130Z,11.10
2018-11-14T19:58:59.516Z,11.10
2018-11-14T20:01:32.802Z,11.10
2018-11-14T20:04:06.278Z,11.10
2018-11-14T20:06:39.545Z,11.10
2018-11-14T20:09:12.884Z,11.20
2018-11-14T20:11:46.085Z,11.10
2018-11-14T20:14:19.575Z,11.20
2018-11-14T20:16:52.937Z,11.20
2018-11-14T20:19:26.400Z,11.20
2018-11-14T20:21:59.689Z,11.10
2018-11-14T20:24:32.979Z,11.10
2018-11-14T20:27:06.233Z,11.10
2018-11-14T20:29:39.724Z,11.10
2018-11-14T20:32:13.272Z,11.10
2018-11-14T20:34:46.554Z,11.10
2018-11-14T20:37:19.976Z,11.10
2018-11-14T20:39:53.287Z,11.10
2018-11-14T20:42:26.787Z,11.10
2018-11-14T20:45:00.313Z,11.20
2018-11-14T20:47:33.761Z,11.20
2018-11-14T20:50:09.329Z,11.20
2018-11-14T20:52:43.348Z,11.20
2018-11-14T20:55:16.671Z,11.20
2018-11-14T20:57:50.199Z,11.20
2018-11-14T21:00:25.696Z,11.20
2018-11-14T21:02:59.195Z,11.20
2018-11-14T21:05:32.718Z,11.20
2018-11-14T21:08:06.470Z,11.20
2018-11-14T21:10:39.874Z,11.20
2018-11-14T21:13:13.361Z,11.20
2018-11-14T21:15:46.801Z,11.20
2018-11-14T21:18:20.188Z,11.20
2018-11-14T21:20:53.596Z,11.20
2018-11-14T21:23:27.562Z,11.20
2018-11-14T21:26:01.413Z,11.10
2018-11-14T21:28:35.436Z,11.20
2018-11-14T21:31:08.853Z,11.20
2018-11-14T21:33:42.173Z,11.10
2018-11-14T21:36:15.715Z,11.10
2018-11-14T21:38:49.295Z,11.10
2018-11-14T21:41:22.721Z,11.20
2018-11-14T21:43:56.050Z,11.20
2018-11-14T21:46:29.481Z,11.20
2018-11-14T21:49:07.200Z,11.20
2018-11-14T21:51:40.572Z,11.20
2018-11-14T21:54:14.048Z,11.10
2018-11-14T21:56:47.609Z,11.20
2018-11-14T21:59:21.069Z,11.20
2018-11-14T22:01:54.524Z,11.10
2018-11-14T22:04:27.893Z,11.10
2018-11-14T22:07:01.202Z,11.10
2018-11-14T22:09:34.522Z,11.10
2018-11-14T22:12:08.060Z,11.10
2018-11-14T22:14:41.420Z,11.10
2018-11-14T22:17:14.760Z,11.10
2018-11-14T22:19:48.264Z,11.10
2018-11-14T22:22:21.650Z,11.10
2018-11-14T22:24:55.081Z,11.10
2018-11-14T22:27:28.400Z,11.10
2018-11-14T22:30:01.957Z,11.10
2018-11-14T22:32:35.392Z,11.10
2018-11-14T22:35:09.928Z,11.10
2018-11-14T22:37:43.429Z,11.10
2018-11-14T22:40:19.024Z,11.10
2018-11-14T22:42:52.471Z,11.10
2018-11-14T22:45:28.045Z,11.10
2018-11-14T22:48:01.592Z,11.10
2018-11-14T22:50:34.893Z,11.10
2018-11-14T22:53:08.218Z,11.10
2018-11-14T22:55:41.769Z,11.10
2018-11-14T22:58:15.289Z,11.20
2018-11-14T23:00:48.736Z,11.10
2018-11-14T23:03:22.123Z,11.20
2018-11-14T23:05:55.401Z,11.10
2018-11-14T23:08:28.810Z,11.10
2018-11-14T23:11:02.081Z,11.10
2018-11-14T23:13:35.326Z,11.20
2018-11-14T23:16:08.630Z,11.10
2018-11-14T23:18:41.877Z,11.10
2018-11-14T23:21:15.138Z,11.00
2018-11-14T23:23:48.434Z,11.00
2018-11-14T23:26:21.692Z,11.00
2018-11-14T23:28:54.969Z,10.50
2018-11-14T23:31:28.326Z,11.00
2018-11-14T23:34:01.785Z,11.00
2018-11-14T23:36:35.201Z,11.10
2018-11-14T23:39:10.567Z,11.00
2018-11-14T23:41:44.133Z,11.00
2018-11-14T23:44:17.537Z,11.00
2018-11-14T23:46:51.025Z,11.00
2018-11-14T23:49:24.377Z,11.00
2018-11-14T23:51:57.778Z,11.00
2018-11-14T23:54:31.279Z,11.00
2018-11-14T23:57:04.943Z,11.00
2018-11-14T23:59:38.305Z,10.90
